createdAt,value
2023-05-05T00:01:09.867Z,11.15
2023-05-05T00:03:38.593Z,8.48
2023-05-05T00:06:11.040Z,11.07
2023-05-05T00:08:38.087Z,8.68
2023-05-05T00:11:05.104Z,7.93
2023-05-05T00:13:32.064Z,6.95
2023-05-05T00:16:00.248Z,7.53
2023-05-05T00:18:30.399Z,9.23
2023-05-05T00:21:00.221Z,8.10
2023-05-05T00:23:31.366Z,9.00
2023-05-05T00:25:58.383Z,9.93
2023-05-05T00:28:28.456Z,9.13
2023-05-05T00:30:58.481Z,8.40
2023-05-05T00:33:28.406Z,9.45
2023-05-05T00:36:01.352Z,5.82
2023-05-05T00:38:32.162Z,7.70
2023-05-05T00:43:32.581Z,7.75
2023-05-05T00:46:04.544Z,10.10
2023-05-05T00:48:32.636Z,6.00
2023-05-05T00:51:08.373Z,10.43
2023-05-05T00:53:45.146Z,9.10
2023-05-05T00:56:17.217Z,9.75
2023-05-05T00:58:52.078Z,10.85
2023-05-05T01:01:20.283Z,7.35
2023-05-05T01:03:50.190Z,10.70
2023-05-05T01:06:35.578Z,8.23
2023-05-05T01:09:34.004Z,6.53
2023-05-05T01:12:15.283Z,10.98
2023-05-05T01:14:53.344Z,6.18
2023-05-05T01:17:23.818Z,7.07
2023-05-05T01:20:05.732Z,6.60
2023-05-05T01:22:42.868Z,8.43
2023-05-05T01:25:38.242Z,8.00
2023-05-05T01:28:04.953Z,8.38
2023-05-05T01:31:10.428Z,9.50
2023-05-05T01:33:46.231Z,10.43
2023-05-05T01:36:22.787Z,11.27
2023-05-05T01:38:55.329Z,8.32
2023-05-05T01:41:28.623Z,12.13
2023-05-05T01:43:57.322Z,8.10
2023-05-05T01:46:27.399Z,9.93
2023-05-05T01:48:55.211Z,10.52
2023-05-05T01:51:24.332Z,6.93
2023-05-05T01:53:53.047Z,9.73
2023-05-05T01:56:20.646Z,7.45
2023-05-05T01:58:50.959Z,8.27
2023-05-05T02:01:19.185Z,10.60
2023-05-05T02:03:47.852Z,6.78
2023-05-05T02:06:15.138Z,8.02
2023-05-05T02:08:42.215Z,7.70
2023-05-05T02:11:10.096Z,8.82
2023-05-05T02:13:39.016Z,9.88
2023-05-05T02:16:06.374Z,8.25
2023-05-05T02:18:35.876Z,9.35
2023-05-05T02:21:03.554Z,12.18
2023-05-05T02:23:30.705Z,9.27
2023-05-05T02:26:01.034Z,7.53
2023-05-05T02:28:35.429Z,7.85
2023-05-05T02:31:02.893Z,9.30
2023-05-05T02:33:33.444Z,8.20
2023-05-05T02:36:11.218Z,7.05
2023-05-05T02:38:49.592Z,7.93
2023-05-05T02:41:18.727Z,8.35
2023-05-05T02:43:46.470Z,7.28
2023-05-05T02:46:13.461Z,13.80
2023-05-05T02:48:43.713Z,8.07
2023-05-05T02:51:10.712Z,10.95
2023-05-05T02:53:38.414Z,11.73
2023-05-05T02:56:20.986Z,11.95
2023-05-05T02:58:54.726Z,9.63
2023-05-05T03:01:55.555Z,11.65
2023-05-05T03:04:36.693Z,11.43
2023-05-05T03:07:29.791Z,7.43
2023-05-05T03:10:10.318Z,8.98
2023-05-05T03:12:58.991Z,8.75
2023-05-05T03:15:46.322Z,9.68
2023-05-05T03:18:21.956Z,7.65
2023-05-05T03:21:00.236Z,10.02
2023-05-05T03:23:38.961Z,14.45
2023-05-05T03:26:21.249Z,8.90
2023-05-05T03:28:53.993Z,7.32
2023-05-05T03:31:28.411Z,9.52
2023-05-05T03:33:58.554Z,8.98
2023-05-05T03:36:30.134Z,9.20
2023-05-05T03:38:58.776Z,8.20
2023-05-05T03:41:28.364Z,9.50
2023-05-05T03:43:55.257Z,9.98
2023-05-05T03:46:22.406Z,9.25
2023-05-05T03:48:49.548Z,9.35
2023-05-05T03:51:16.435Z,11.13
2023-05-05T03:53:47.020Z,7.80
2023-05-05T03:56:14.180Z,9.20
2023-05-05T03:58:41.291Z,12.50
2023-05-05T04:01:08.521Z,8.00
2023-05-05T04:03:35.807Z,10.57
2023-05-05T04:06:03.064Z,10.25
2023-05-05T04:08:33.316Z,10.63
2023-05-05T04:11:02.747Z,11.98
2023-05-05T04:13:31.130Z,10.38
2023-05-05T04:15:59.781Z,12.13
2023-05-05T04:18:29.472Z,13.98
2023-05-05T04:20:56.440Z,12.68
2023-05-05T04:23:23.398Z,9.68
2023-05-05T04:25:50.835Z,8.88
2023-05-05T04:28:20.976Z,9.30
2023-05-05T04:30:48.844Z,13.25
2023-05-05T04:33:15.793Z,15.18
2023-05-05T04:35:42.628Z,10.20
2023-05-05T04:38:09.750Z,10.43
2023-05-05T04:40:43.288Z,13.93
2023-05-05T04:43:11.144Z,10.10
2023-05-05T04:45:38.291Z,10.32
2023-05-05T04:48:05.932Z,11.90
2023-05-05T04:50:33.984Z,12.40
2023-05-05T04:53:00.914Z,10.73
2023-05-05T04:55:28.535Z,10.18
2023-05-05T04:57:56.644Z,10.70
2023-05-05T05:00:25.865Z,9.90
2023-05-05T05:02:54.999Z,15.70
2023-05-05T05:05:22.017Z,10.27
2023-05-05T05:07:49.094Z,10.20
2023-05-05T05:10:15.937Z,10.88
2023-05-05T05:12:42.791Z,13.38
2023-05-05T05:15:11.056Z,11.05
2023-05-05T05:17:38.426Z,13.55
2023-05-05T05:20:09.161Z,17.15
2023-05-05T05:22:38.719Z,17.17
2023-05-05T05:25:09.024Z,12.90
2023-05-05T05:27:36.942Z,11.57
2023-05-05T05:30:04.279Z,19.10
2023-05-05T05:32:32.832Z,16.15
2023-05-05T05:34:59.747Z,11.35
2023-05-05T05:37:31.056Z,12.07
2023-05-05T05:39:59.187Z,18.73
2023-05-05T05:42:28.332Z,13.63
2023-05-05T05:44:55.213Z,16.90
2023-05-05T05:47:22.009Z,17.52
2023-05-05T05:49:52.026Z,19.83
2023-05-05T05:52:19.872Z,16.95
2023-05-05T05:54:46.897Z,17.60
2023-05-05T05:57:13.753Z,18.52
2023-05-05T05:59:40.610Z,14.57
2023-05-05T06:02:08.252Z,27.30
2023-05-05T06:04:35.834Z,15.52
2023-05-05T06:07:02.813Z,21.10
2023-05-05T06:09:29.831Z,21.83
2023-05-05T06:11:56.596Z,17.63
2023-05-05T06:14:23.342Z,15.95
2023-05-05T06:16:52.798Z,16.42
2023-05-05T06:19:26.562Z,15.68
2023-05-05T06:21:54.265Z,20.17
2023-05-05T06:24:21.460Z,17.48
2023-05-05T06:26:48.384Z,17.95
2023-05-05T06:29:15.333Z,21.13
2023-05-05T06:31:42.265Z,15.25
2023-05-05T06:34:09.119Z,16.45
2023-05-05T06:36:36.059Z,17.90
2023-05-05T06:39:02.747Z,17.05
2023-05-05T06:41:29.482Z,20.17
2023-05-05T06:43:56.387Z,25.42
2023-05-05T06:46:23.182Z,19.38
2023-05-05T06:48:50.105Z,18.77
2023-05-05T06:51:16.869Z,22.45
2023-05-05T06:53:43.660Z,20.45
2023-05-05T06:56:11.410Z,21.15
2023-05-05T06:58:38.170Z,15.77
2023-05-05T07:01:05.229Z,22.25
2023-05-05T07:03:32.166Z,16.30
2023-05-05T07:05:58.903Z,20.88
2023-05-05T07:08:25.737Z,19.08
2023-05-05T07:10:52.438Z,18.95
2023-05-05T07:13:19.379Z,19.92
2023-05-05T07:15:46.676Z,16.02
2023-05-05T07:18:14.322Z,20.77
2023-05-05T07:20:41.282Z,18.73
2023-05-05T07:23:08.162Z,18.98
2023-05-05T07:25:35.115Z,21.38
2023-05-05T07:28:01.910Z,17.17
2023-05-05T07:30:28.778Z,19.23
2023-05-05T07:32:56.720Z,17.20
2023-05-05T07:35:23.692Z,20.80
2023-05-05T07:37:51.256Z,19.42
2023-05-05T07:40:18.168Z,17.73
2023-05-05T07:42:45.422Z,18.58
2023-05-05T07:45:12.304Z,20.23
2023-05-05T07:47:40.520Z,17.75
2023-05-05T07:50:08.567Z,18.00
2023-05-05T07:52:46.867Z,14.18
2023-05-05T07:55:16.925Z,21.40
2023-05-05T07:57:47.756Z,18.25
2023-05-05T08:00:19.516Z,14.15
2023-05-05T08:02:47.950Z,14.60
2023-05-05T08:05:18.677Z,14.90
2023-05-05T08:07:48.928Z,12.52
2023-05-05T08:10:19.324Z,17.05
2023-05-05T08:12:46.494Z,16.42
2023-05-05T08:15:13.397Z,14.27
2023-05-05T08:17:47.802Z,18.73
2023-05-05T08:20:15.729Z,16.67
2023-05-05T08:22:43.236Z,12.85
2023-05-05T08:25:13.247Z,13.23
2023-05-05T08:27:41.439Z,17.88
2023-05-05T08:30:09.180Z,13.38
2023-05-05T08:32:36.290Z,14.70
2023-05-05T08:35:07.061Z,13.40
2023-05-05T08:37:34.275Z,13.45
2023-05-05T08:40:01.068Z,15.15
2023-05-05T08:42:37.194Z,17.42
2023-05-05T08:45:10.782Z,14.95
2023-05-05T08:47:43.207Z,15.88
2023-05-05T08:50:19.543Z,13.18
2023-05-05T08:53:02.083Z,15.20
2023-05-05T08:55:34.436Z,10.38
2023-05-05T08:58:04.159Z,13.77
2023-05-05T09:00:35.333Z,13.15
2023-05-05T09:03:09.229Z,10.95
2023-05-05T09:05:55.645Z,13.57
2023-05-05T09:08:24.801Z,10.23
2023-05-05T09:10:54.415Z,14.18
2023-05-05T09:13:28.786Z,15.88
2023-05-05T09:16:13.645Z,10.93
2023-05-05T09:18:49.380Z,10.93
2023-05-05T09:21:27.170Z,16.48
2023-05-05T09:24:11.749Z,9.82
2023-05-05T09:26:44.850Z,12.23
2023-05-05T09:29:40.844Z,10.57
2023-05-05T09:32:14.609Z,11.32
2023-05-05T09:34:46.419Z,13.15
2023-05-05T09:37:33.378Z,11.57
2023-05-05T09:40:01.763Z,9.80
2023-05-05T09:42:51.959Z,14.13
2023-05-05T09:45:28.116Z,10.23
2023-05-05T09:48:08.526Z,6.78
2023-05-05T09:51:01.301Z,7.40
2023-05-05T09:53:42.857Z,9.48
2023-05-05T09:56:12.756Z,5.43
2023-05-05T09:58:48.709Z,6.68
2023-05-05T10:01:24.484Z,5.50
2023-05-05T10:03:53.902Z,11.23
2023-05-05T10:06:50.696Z,10.85
2023-05-05T10:09:32.226Z,11.80
2023-05-05T10:12:15.986Z,8.93
2023-05-05T10:14:47.429Z,8.68
2023-05-05T10:17:26.874Z,7.88
2023-05-05T10:20:05.907Z,8.63
2023-05-05T10:22:44.462Z,5.43
2023-05-05T10:25:26.691Z,6.60
2023-05-05T10:28:04.530Z,6.28
2023-05-05T10:30:44.784Z,8.98
2023-05-05T10:36:04.390Z,9.43
2023-05-05T10:38:31.876Z,8.02
2023-05-05T10:41:05.120Z,7.75
2023-05-05T10:43:43.985Z,6.05
2023-05-05T10:46:14.649Z,13.27
2023-05-05T10:48:54.040Z,12.45
2023-05-05T10:51:40.984Z,9.65
2023-05-05T10:54:45.048Z,11.25
2023-05-05T10:57:22.448Z,7.55
2023-05-05T11:00:15.040Z,11.40
2023-05-05T11:02:44.670Z,13.00
2023-05-05T11:05:24.373Z,9.43
2023-05-05T11:08:32.901Z,10.02
2023-05-05T11:11:04.944Z,8.55
2023-05-05T11:13:35.165Z,7.22
2023-05-05T11:16:08.679Z,10.18
2023-05-05T11:18:45.239Z,8.15
2023-05-05T11:21:18.482Z,11.60
2023-05-05T11:24:06.104Z,13.07
2023-05-05T11:27:08.109Z,6.88
2023-05-05T11:30:11.154Z,13.20
2023-05-05T11:32:44.377Z,9.07
2023-05-05T11:35:15.780Z,8.48
2023-05-05T11:38:01.808Z,10.68
2023-05-05T11:40:35.056Z,7.65
2023-05-05T11:43:20.832Z,13.25
2023-05-05T11:46:16.101Z,8.48
2023-05-05T11:49:16.590Z,7.40
2023-05-05T11:51:59.329Z,8.23
2023-05-05T11:54:36.823Z,9.15
2023-05-05T11:57:08.263Z,8.43
2023-05-05T12:00:13.063Z,6.45
2023-05-05T12:02:43.008Z,8.75
2023-05-05T12:05:21.702Z,7.55
2023-05-05T12:08:03.781Z,5.32
2023-05-05T12:10:38.595Z,9.10
2023-05-05T12:13:19.040Z,9.67
2023-05-05T12:15:50.662Z,5.90
2023-05-05T12:18:21.798Z,12.55
2023-05-05T12:21:01.807Z,17.75
2023-05-05T12:23:41.359Z,11.45
2023-05-05T12:26:10.290Z,7.78
2023-05-05T12:28:53.950Z,9.27
2023-05-05T12:31:47.872Z,6.47
2023-05-05T12:34:18.910Z,7.03
2023-05-05T12:36:55.741Z,6.50
2023-05-05T12:39:23.880Z,7.80
2023-05-05T12:42:06.197Z,8.52
2023-05-05T12:45:03.571Z,6.30
2023-05-05T12:47:42.391Z,5.40
2023-05-05T12:50:15.459Z,7.32
2023-05-05T12:53:03.171Z,11.23
2023-05-05T12:55:48.234Z,7.53
2023-05-05T12:58:31.808Z,5.55
2023-05-05T13:01:18.260Z,10.65
2023-05-05T13:04:17.509Z,5.57
2023-05-05T13:06:51.720Z,4.18
2023-05-05T13:09:50.441Z,5.20
2023-05-05T13:12:26.100Z,5.50
2023-05-05T13:14:54.870Z,7.97
2023-05-05T13:17:26.914Z,6.68
2023-05-05T13:19:54.022Z,5.43
2023-05-05T13:22:30.154Z,7.72
2023-05-05T13:25:10.205Z,5.97
2023-05-05T13:27:50.721Z,6.28
2023-05-05T13:30:24.419Z,8.52
2023-05-05T13:32:59.033Z,6.18
2023-05-05T13:35:37.095Z,7.90
2023-05-05T13:38:22.167Z,6.90
2023-05-05T13:41:00.930Z,4.68
2023-05-05T13:43:40.138Z,7.65
2023-05-05T13:46:20.170Z,7.47
2023-05-05T13:49:01.838Z,8.90
2023-05-05T13:54:40.929Z,6.55
2023-05-05T13:57:58.427Z,8.88
2023-05-05T14:00:30.152Z,4.22
2023-05-05T14:03:09.472Z,5.85
2023-05-05T14:05:37.815Z,8.48
2023-05-05T14:08:20.165Z,5.40
2023-05-05T14:10:53.105Z,13.13
2023-05-05T14:13:41.951Z,6.05
2023-05-05T14:16:09.347Z,5.63
2023-05-05T14:19:30.167Z,4.80
2023-05-05T14:22:17.786Z,5.97
2023-05-05T14:25:02.642Z,5.43
2023-05-05T14:27:40.765Z,5.88
2023-05-05T14:30:18.071Z,5.13
2023-05-05T14:33:00.770Z,4.20
2023-05-05T14:35:47.260Z,3.70
2023-05-05T14:38:44.077Z,2.70
2023-05-05T14:41:17.620Z,6.70
2023-05-05T14:43:47.429Z,4.78
2023-05-05T14:46:22.634Z,4.38
2023-05-05T14:48:56.575Z,4.35
2023-05-05T14:51:29.156Z,8.00
2023-05-05T14:54:28.419Z,5.03
2023-05-05T14:57:11.349Z,5.35
2023-05-05T14:59:45.497Z,7.03
2023-05-05T15:02:18.025Z,7.32
2023-05-05T15:04:50.931Z,7.03
2023-05-05T15:07:39.175Z,5.03
2023-05-05T15:10:19.148Z,3.38
2023-05-05T15:12:53.681Z,7.65
2023-05-05T15:15:26.305Z,7.82
2023-05-05T15:18:06.993Z,5.95
2023-05-05T15:21:11.617Z,5.25
2023-05-05T15:24:04.632Z,14.13
2023-05-05T15:26:43.508Z,6.05
2023-05-05T15:29:23.061Z,6.07
2023-05-05T15:31:52.823Z,7.65
2023-05-05T15:34:32.168Z,5.45
2023-05-05T15:37:12.166Z,5.72
2023-05-05T15:39:53.535Z,5.57
2023-05-05T15:42:27.052Z,6.65
2023-05-05T15:44:57.478Z,6.35
2023-05-05T15:47:30.449Z,6.15
2023-05-05T15:50:08.529Z,4.22
2023-05-05T15:53:40.750Z,5.15
2023-05-05T15:56:21.741Z,3.63
2023-05-05T15:59:14.152Z,5.38
2023-05-05T16:02:24.797Z,5.30
2023-05-05T16:05:00.266Z,5.93
2023-05-05T16:07:50.414Z,5.03
2023-05-05T16:10:31.234Z,6.07
2023-05-05T16:13:09.896Z,4.40
2023-05-05T16:15:42.857Z,4.30
2023-05-05T16:18:34.338Z,5.63
2023-05-05T16:21:20.074Z,7.32
2023-05-05T16:24:14.623Z,5.25
2023-05-05T16:26:50.037Z,4.00
2023-05-05T16:29:27.039Z,7.03
2023-05-05T16:31:59.949Z,5.65
2023-05-05T16:35:15.379Z,7.57
2023-05-05T16:38:42.551Z,8.90
2023-05-05T16:41:31.236Z,11.30
2023-05-05T16:44:20.202Z,12.23
2023-05-05T16:46:58.852Z,9.93
2023-05-05T16:49:37.186Z,10.00
2023-05-05T16:52:10.629Z,18.00
2023-05-05T16:54:46.083Z,10.07
2023-05-05T16:57:33.010Z,7.97
2023-05-05T17:00:28.676Z,18.40
2023-05-05T17:03:01.681Z,12.02
2023-05-05T17:06:18.720Z,12.10
2023-05-05T17:08:57.687Z,14.40
2023-05-05T17:11:38.956Z,17.00
2023-05-05T17:14:44.754Z,15.95
2023-05-05T17:17:35.215Z,18.67
2023-05-05T17:21:17.006Z,10.88
2023-05-05T17:32:15.931Z,14.07
2023-05-05T17:35:16.414Z,17.33
2023-05-05T17:37:43.181Z,13.60
2023-05-05T17:40:10.112Z,9.75
2023-05-05T17:42:38.227Z,14.93
2023-05-05T17:45:05.437Z,18.58
2023-05-05T17:47:32.489Z,18.42
2023-05-05T17:49:59.513Z,14.55
2023-05-05T17:52:26.301Z,21.38
2023-05-05T17:54:52.998Z,20.00
2023-05-05T17:57:22.961Z,18.23
2023-05-05T17:59:50.360Z,17.88
2023-05-05T18:02:17.298Z,17.42
2023-05-05T18:04:44.028Z,22.48
2023-05-05T18:07:12.246Z,14.77
2023-05-05T18:09:39.116Z,21.05
2023-05-05T18:12:07.587Z,24.92
2023-05-05T18:14:34.439Z,19.20
2023-05-05T18:17:01.327Z,19.95
2023-05-05T18:19:28.132Z,16.35
2023-05-05T18:21:54.933Z,15.25
2023-05-05T18:24:21.942Z,14.00
2023-05-05T18:26:50.909Z,16.33
2023-05-05T18:29:19.304Z,28.00
2023-05-05T18:31:48.554Z,21.98
2023-05-05T18:34:16.655Z,19.80
2023-05-05T18:36:43.441Z,16.42
2023-05-05T18:39:10.187Z,20.15
2023-05-05T18:41:37.107Z,16.35
2023-05-05T18:44:03.932Z,15.80
2023-05-05T18:46:30.777Z,13.63
2023-05-05T18:48:57.632Z,17.30
2023-05-05T18:51:24.534Z,19.58
2023-05-05T18:53:51.302Z,15.57
2023-05-05T18:56:18.119Z,17.02
2023-05-05T18:58:44.879Z,16.77
2023-05-05T19:01:11.940Z,15.00
2023-05-05T19:03:38.886Z,19.13
2023-05-05T19:06:06.278Z,22.83
2023-05-05T19:08:33.224Z,17.20
2023-05-05T19:11:00.038Z,17.88
2023-05-05T19:13:26.897Z,14.07
2023-05-05T19:15:54.958Z,13.23
2023-05-05T19:18:21.838Z,18.58
2023-05-05T19:20:48.623Z,16.90
2023-05-05T19:23:17.403Z,22.23
2023-05-05T19:25:44.536Z,25.83
2023-05-05T19:28:12.005Z,17.45
2023-05-05T19:30:38.915Z,20.25
2023-05-05T19:33:06.260Z,14.70
2023-05-05T19:35:35.802Z,17.65
2023-05-05T19:38:02.577Z,17.65
2023-05-05T19:40:29.292Z,17.42
2023-05-05T19:42:56.102Z,20.92
2023-05-05T19:45:23.002Z,27.08
2023-05-05T19:47:49.737Z,21.63
2023-05-05T19:50:16.527Z,18.27
2023-05-05T19:52:43.201Z,16.00
2023-05-05T19:55:13.286Z,16.58
2023-05-05T19:57:40.512Z,22.40
2023-05-05T20:00:10.464Z,24.55
2023-05-05T20:02:37.632Z,31.38
2023-05-05T20:05:04.728Z,21.80
2023-05-05T20:07:31.519Z,22.40
2023-05-05T20:09:58.724Z,18.33
2023-05-05T20:12:25.731Z,20.90
2023-05-05T20:14:52.688Z,21.30
2023-05-05T20:17:21.312Z,23.67
2023-05-05T20:19:48.199Z,19.55
2023-05-05T20:22:15.009Z,21.80
2023-05-05T20:24:41.915Z,30.52
2023-05-05T20:27:08.641Z,29.38
2023-05-05T20:29:35.357Z,40.08
2023-05-05T20:32:02.103Z,38.53
2023-05-05T20:34:29.018Z,35.67
2023-05-05T20:36:56.624Z,25.25
2023-05-05T20:39:23.494Z,25.08
2023-05-05T20:41:50.173Z,24.48
2023-05-05T20:44:17.233Z,26.27
2023-05-05T20:46:44.326Z,20.48
2023-05-05T20:49:11.062Z,25.20
2023-05-05T20:51:37.859Z,25.23
2023-05-05T20:54:05.016Z,20.55
2023-05-05T20:56:31.851Z,20.40
2023-05-05T20:58:58.616Z,19.52
2023-05-05T21:01:25.442Z,16.73
2023-05-05T21:03:52.692Z,17.70
2023-05-05T21:06:19.609Z,22.00
2023-05-05T21:08:47.144Z,15.27
2023-05-05T21:11:14.026Z,20.48
2023-05-05T21:13:40.863Z,24.10
2023-05-05T21:16:07.872Z,24.27
2023-05-05T21:18:34.661Z,15.57
2023-05-05T21:21:01.593Z,20.45
2023-05-05T21:23:28.431Z,17.58
2023-05-05T21:25:55.557Z,19.33
2023-05-05T21:28:22.285Z,17.88
2023-05-05T21:31:10.316Z,19.80
2023-05-05T21:33:38.037Z,20.40
2023-05-05T21:36:06.190Z,24.98
2023-05-05T21:38:33.006Z,26.48
2023-05-05T21:40:59.759Z,22.25
2023-05-05T21:43:28.543Z,28.60
2023-05-05T21:46:00.131Z,20.55
2023-05-05T21:48:27.295Z,20.20
2023-05-05T21:50:54.716Z,21.20
2023-05-05T21:53:21.670Z,24.63
2023-05-05T21:55:48.600Z,22.88
2023-05-05T21:58:16.401Z,21.58
2023-05-05T22:00:43.201Z,18.20
2023-05-05T22:03:10.210Z,19.50
2023-05-05T22:05:37.009Z,18.15
2023-05-05T22:08:03.981Z,20.20
2023-05-05T22:10:30.984Z,27.23
2023-05-05T22:12:58.247Z,24.65
2023-05-05T22:15:27.709Z,22.70
2023-05-05T22:17:56.926Z,21.67
2023-05-05T22:20:23.820Z,19.52
2023-05-05T22:22:51.046Z,23.98
2023-05-05T22:25:18.012Z,23.67
2023-05-05T22:27:45.492Z,19.50
2023-05-05T22:30:12.914Z,22.30
2023-05-05T22:32:40.931Z,23.40
2023-05-05T22:35:09.370Z,20.38
2023-05-05T22:37:36.544Z,30.15
2023-05-05T22:40:03.702Z,31.55
2023-05-05T22:42:30.970Z,29.50
2023-05-05T22:44:57.928Z,30.63
2023-05-05T22:47:24.742Z,23.00
2023-05-05T22:49:51.631Z,25.70
2023-05-05T22:52:18.946Z,26.60
2023-05-05T22:54:45.850Z,22.77
2023-05-05T22:57:12.675Z,25.70
2023-05-05T22:59:39.486Z,28.67
2023-05-05T23:02:06.274Z,42.05
2023-05-05T23:04:33.391Z,30.33
2023-05-05T23:07:00.187Z,30.25
2023-05-05T23:09:26.961Z,29.42
2023-05-05T23:11:53.757Z,27.38
2023-05-05T23:14:20.567Z,31.25
2023-05-05T23:16:47.326Z,31.38
2023-05-05T23:19:14.132Z,33.97
2023-05-05T23:21:52.130Z,28.45
2023-05-05T23:24:19.908Z,34.63
2023-05-05T23:26:46.665Z,32.55
2023-05-05T23:29:13.514Z,33.78
2023-05-05T23:31:40.336Z,35.75
2023-05-05T23:34:07.056Z,36.80
2023-05-05T23:36:33.828Z,35.05
2023-05-05T23:39:00.609Z,32.17
2023-05-05T23:41:27.404Z,28.70
2023-05-05T23:43:54.127Z,34.22
2023-05-05T23:46:20.928Z,34.47
2023-05-05T23:48:47.771Z,28.83
2023-05-05T23:51:14.821Z,33.92
2023-05-05T23:53:41.622Z,36.45
2023-05-05T23:56:08.403Z,37.42
2023-05-05T23:58:35.176Z,32.42
